Time;durP1;ratioP1;P1;durP2;ratioP2;P2;SDS_P1;SDS_P2;PMS_P1;PMS_P2;Temp;Humidity;BMP_temperature;BMP_pressure;BME280_temperature;BME280_humidity;BME280_pressure;Samples;Min_cycle;Max_cycle;Signal;HPM_P1;HPM_P2
2022/05/31 00:04:43;;;;;;;14.52;10.55;;;;;;;;;;10436895;28;20049;-68
2022/05/31 00:09:46;;;;;;;17.73;11.23;;;;;;;;;;10438284;28;20048;-67
2022/05/31 00:14:49;;;;;;;24.30;12.00;;;;;;;;;;10436779;28;20049;-68
2022/05/31 00:19:53;;;;;;;23.20;11.57;;;;;;;;;;10434354;28;20047;-68
2022/05/31 00:24:55;;;;;;;16.70;10.85;;;;;;;;;;10474006;28;20049;-68
2022/05/31 00:29:58;;;;;;;15.82;11.23;;;;;;;;;;10477538;28;20281;-68
2022/05/31 01:01:51;;;;;;;17.85;10.23;;;;;;;;;;10327555;28;20279;-68
2022/05/31 01:06:56;;;;;;;18.02;10.95;;;;;;;;;;10334488;28;20061;-68
2022/05/31 01:12:00;;;;;;;14.50;10.00;;;;;;;;;;10351602;28;20038;-68
2022/05/31 01:17:10;;;;;;;14.35;9.88;;;;;;;;;;10355046;28;20356;-68
2022/05/31 01:22:16;;;;;;;15.75;10.45;;;;;;;;;;10366563;28;20368;-67
2022/05/31 01:27:32;;;;;;;16.20;10.23;;;;;;;;;;10366077;28;20054;-68
2022/05/31 01:32:38;;;;;;;16.50;10.10;;;;;;;;;;10364932;28;20042;-67
2022/05/31 01:37:46;;;;;;;19.33;10.40;;;;;;;;;;10365665;28;20161;-67
2022/05/31 01:42:49;;;;;;;16.98;10.43;;;;;;;;;;10365124;28;20046;-68
2022/05/31 01:47:51;;;;;;;17.13;10.10;;;;;;;;;;10352363;28;20045;-68
2022/05/31 01:52:55;;;;;;;16.10;10.00;;;;;;;;;;10350741;28;20050;-67
2022/05/31 01:58:02;;;;;;;23.52;10.70;;;;;;;;;;10371823;28;20066;-67
2022/05/31 02:03:06;;;;;;;15.63;10.02;;;;;;;;;;10432236;28;20299;-67
2022/05/31 02:08:10;;;;;;;19.67;11.53;;;;;;;;;;10432050;28;20437;-67
2022/05/31 02:13:13;;;;;;;19.02;12.13;;;;;;;;;;10432725;28;20041;-67
2022/05/31 02:18:15;;;;;;;15.57;10.43;;;;;;;;;;10431952;28;20238;-68
2022/05/31 02:23:19;;;;;;;20.88;11.60;;;;;;;;;;10431817;28;20050;-67
2022/05/31 02:28:22;;;;;;;18.40;11.65;;;;;;;;;;10432438;28;20053;-67
2022/05/31 02:33:24;;;;;;;27.23;13.82;;;;;;;;;;10432153;28;20049;-67
2022/05/31 02:38:28;;;;;;;21.42;13.15;;;;;;;;;;10430270;28;20041;-67
2022/05/31 02:43:31;;;;;;;19.92;11.55;;;;;;;;;;10430775;28;20225;-68
2022/05/31 02:48:33;;;;;;;15.25;9.65;;;;;;;;;;10431579;28;20053;-68
2022/05/31 02:53:37;;;;;;;13.95;8.82;;;;;;;;;;10430454;28;20041;-68
2022/05/31 02:58:40;;;;;;;13.77;8.93;;;;;;;;;;10430729;28;20061;-67
2022/05/31 03:03:42;;;;;;;12.25;9.07;;;;;;;;;;10430668;28;20264;-67
2022/05/31 03:08:47;;;;;;;10.57;8.70;;;;;;;;;;10403417;28;20050;-67
2022/05/31 03:13:52;;;;;;;10.80;7.45;;;;;;;;;;10418318;28;20045;-67
2022/05/31 03:19:02;;;;;;;11.38;8.13;;;;;;;;;;10436973;28;20272;-67
2022/05/31 03:24:11;;;;;;;8.82;7.25;;;;;;;;;;10451261;28;20041;-68
2022/05/31 03:29:13;;;;;;;15.68;7.25;;;;;;;;;;10442338;28;20041;-67
2022/05/31 03:34:16;;;;;;;10.00;6.82;;;;;;;;;;10437447;28;20378;-68
2022/05/31 03:39:20;;;;;;;8.48;6.10;;;;;;;;;;10404023;28;20352;-68
2022/05/31 03:44:23;;;;;;;10.20;6.00;;;;;;;;;;10430214;28;20041;-68
2022/05/31 03:49:25;;;;;;;9.43;5.83;;;;;;;;;;10436632;28;20268;-68
2022/05/31 03:54:30;;;;;;;8.97;5.60;;;;;;;;;;10436157;28;20301;-68
2022/05/31 03:59:36;;;;;;;10.23;5.95;;;;;;;;;;10435986;28;20341;-67
2022/05/31 04:04:38;;;;;;;8.75;6.00;;;;;;;;;;10449698;28;20040;-69
2022/05/31 04:09:42;;;;;;;7.87;5.83;;;;;;;;;;10436539;28;20072;-68
2022/05/31 04:14:44;;;;;;;10.63;6.75;;;;;;;;;;10436915;28;20045;-68
2022/05/31 04:19:47;;;;;;;9.02;6.32;;;;;;;;;;10434897;28;20046;-68
2022/05/31 04:24:53;;;;;;;7.60;5.65;;;;;;;;;;10436547;28;20046;-69
2022/05/31 04:29:55;;;;;;;10.00;6.88;;;;;;;;;;10449152;28;20045;-68
2022/05/31 04:34:58;;;;;;;7.45;5.15;;;;;;;;;;10434765;28;20046;-70
2022/05/31 04:40:02;;;;;;;7.63;5.88;;;;;;;;;;10433309;28;20041;-70
2022/05/31 04:45:06;;;;;;;8.55;4.93;;;;;;;;;;10398727;28;20337;-68
2022/05/31 04:50:09;;;;;;;5.40;4.57;;;;;;;;;;10433270;28;20041;-69
2022/05/31 04:55:13;;;;;;;8.38;4.80;;;;;;;;;;10426976;28;20046;-68
2022/05/31 05:00:16;;;;;;;6.80;4.35;;;;;;;;;;10399430;28;20111;-69
2022/05/31 05:05:18;;;;;;;5.85;4.45;;;;;;;;;;10424632;28;20410;-69
2022/05/31 05:10:22;;;;;;;6.95;4.63;;;;;;;;;;10415930;28;20049;-69
2022/05/31 05:15:24;;;;;;;10.88;4.53;;;;;;;;;;10425363;28;20041;-69
2022/05/31 05:20:27;;;;;;;13.07;7.93;;;;;;;;;;10430260;28;20341;-69
2022/05/31 05:25:30;;;;;;;9.60;6.63;;;;;;;;;;10430694;28;20221;-69
2022/05/31 05:30:41;;;;;;;6.95;5.00;;;;;;;;;;10429853;28;20052;-70
2022/05/31 05:35:43;;;;;;;8.13;5.07;;;;;;;;;;10437335;28;20218;-68
2022/05/31 05:40:47;;;;;;;7.25;4.65;;;;;;;;;;10428894;28;20045;-69
2022/05/31 05:45:50;;;;;;;4.47;3.75;;;;;;;;;;10431956;28;20060;-68
2022/05/31 05:50:52;;;;;;;6.15;4.50;;;;;;;;;;10428235;28;20037;-69
2022/05/31 05:55:56;;;;;;;5.35;4.07;;;;;;;;;;10428084;28;20076;-68
2022/05/31 06:00:59;;;;;;;5.50;3.58;;;;;;;;;;10430537;28;20123;-68
2022/05/31 06:06:02;;;;;;;4.50;3.55;;;;;;;;;;10429700;28;20080;-68
2022/05/31 06:11:12;;;;;;;5.78;3.65;;;;;;;;;;10432617;28;20057;-68
2022/05/31 06:16:14;;;;;;;6.25;3.15;;;;;;;;;;10435261;28;20100;-69
2022/05/31 06:21:19;;;;;;;3.90;2.95;;;;;;;;;;10406351;28;20042;-69
2022/05/31 06:26:23;;;;;;;3.58;3.08;;;;;;;;;;10392065;28;20234;-68
2022/05/31 06:31:25;;;;;;;3.85;2.78;;;;;;;;;;10415622;28;20111;-68
2022/05/31 06:36:27;;;;;;;3.25;2.53;;;;;;;;;;10430513;28;20038;-68
2022/05/31 06:41:32;;;;;;;2.75;2.35;;;;;;;;;;10430709;28;20182;-68
2022/05/31 06:46:34;;;;;;;3.00;2.70;;;;;;;;;;10439178;28;20053;-68
2022/05/31 06:57:01;;;;;;;5.13;4.73;;;;;;;;;;10450747;28;19925;-69
2022/05/31 07:02:04;;;;;;;5.38;4.95;;;;;;;;;;10454362;28;20049;-68
2022/05/31 07:07:07;;;;;;;4.35;4.25;;;;;;;;;;10437593;28;20061;-69
2022/05/31 07:12:10;;;;;;;0.88;0.88;;;;;;;;;;10439623;28;20079;-68
2022/05/31 07:17:13;;;;;;;0.60;0.60;;;;;;;;;;10426315;28;20247;-69
2022/05/31 07:22:18;;;;;;;1.80;1.80;;;;;;;;;;10421567;28;20037;-68
2022/05/31 07:27:21;;;;;;;2.30;2.30;;;;;;;;;;10437607;28;20459;-68
2022/05/31 07:32:24;;;;;;;0.10;0.10;;;;;;;;;;10436991;28;20321;-69
2022/05/31 07:37:26;;;;;;;2.35;1.20;;;;;;;;;;10435401;28;20395;-68
2022/05/31 07:42:30;;;;;;;2.25;1.33;;;;;;;;;;10435265;28;20041;-69
2022/05/31 07:47:32;;;;;;;1.40;1.30;;;;;;;;;;10433707;28;20091;-67
2022/05/31 07:52:35;;;;;;;1.00;1.00;;;;;;;;;;10432973;28;20048;-68
2022/05/31 08:02:58;;;;;;;0.90;0.90;;;;;;;;;;10435656;28;20064;-68
2022/05/31 08:08:01;;;;;;;3.42;1.40;;;;;;;;;;10436212;28;20328;-69
2022/05/31 08:13:04;;;;;;;1.30;1.30;;;;;;;;;;10435789;28;20068;-70
2022/05/31 08:18:07;;;;;;;5.40;5.20;;;;;;;;;;10436700;28;20324;-69
2022/05/31 08:23:10;;;;;;;14.60;13.90;;;;;;;;;;10434560;28;20068;-72
2022/05/31 08:28:17;;;;;;;27.42;26.00;;;;;;;;;;10446622;28;20083;-68
2022/05/31 08:33:19;;;;;;;42.33;39.92;;;;;;;;;;10436108;28;20042;-69
2022/05/31 08:38:21;;;;;;;33.88;32.03;;;;;;;;;;10436655;28;20237;-68
2022/05/31 08:43:36;;;;;;;3.53;3.42;;;;;;;;;;10433926;28;20206;-68
2022/05/31 08:48:49;;;;;;;0.20;0.20;;;;;;;;;;10434954;28;20053;-69
2022/05/31 08:59:18;;;;;;;18.48;17.58;;;;;;;;;;10426206;28;20058;-69
2022/05/31 09:04:25;;;;;;;45.58;42.88;;;;;;;;;;10412240;28;20052;-68
2022/05/31 09:09:34;;;;;;;13.05;12.45;;;;;;;;;;10433610;28;20248;-68
2022/05/31 09:14:42;;;;;;;;;;;;;;;;;;10442002;28;20045;-68
2022/05/31 09:19:50;;;;;;;0.00;0.00;;;;;;;;;;10446689;28;19917;-68
2022/05/31 09:24:52;;;;;;;0.13;0.13;;;;;;;;;;10432776;28;20058;-68
2022/05/31 09:30:04;;;;;;;2.67;1.30;;;;;;;;;;10433077;28;20076;-69
2022/05/31 09:35:20;;;;;;;5.05;1.67;;;;;;;;;;10446080;28;20053;-68
2022/05/31 09:40:37;;;;;;;2.05;1.55;;;;;;;;;;10445591;28;20050;-68
2022/05/31 09:45:48;;;;;;;2.95;1.50;;;;;;;;;;10445539;28;20100;-67
2022/05/31 09:50:53;;;;;;;4.15;1.48;;;;;;;;;;10446920;28;20095;-67
2022/05/31 10:01:29;;;;;;;3.65;1.63;;;;;;;;;;10431963;28;20061;-69
2022/05/31 10:06:32;;;;;;;4.95;1.83;;;;;;;;;;10445168;28;20093;-70
2022/05/31 10:11:43;;;;;;;1.90;1.45;;;;;;;;;;10431178;28;20209;-68
2022/05/31 10:16:49;;;;;;;4.37;1.50;;;;;;;;;;10434570;28;20048;-69
2022/05/31 10:21:51;;;;;;;7.57;2.17;;;;;;;;;;10445327;28;20103;-67
2022/05/31 10:27:07;;;;;;;2.38;1.88;;;;;;;;;;10430836;28;20053;-68
2022/05/31 10:32:27;;;;;;;5.03;2.00;;;;;;;;;;10431048;28;20268;-68
2022/05/31 10:37:32;;;;;;;3.13;1.52;;;;;;;;;;10442931;28;20045;-69
2022/05/31 10:42:38;;;;;;;3.58;1.85;;;;;;;;;;10438807;28;20287;-69
2022/05/31 10:47:42;;;;;;;6.53;1.88;;;;;;;;;;10447100;28;20041;-70
2022/05/31 10:52:52;;;;;;;5.70;2.00;;;;;;;;;;10430776;28;20056;-71
2022/05/31 10:58:07;;;;;;;5.20;1.70;;;;;;;;;;10443635;28;20057;-73
2022/05/31 11:03:23;;;;;;;7.28;2.05;;;;;;;;;;10445927;28;20041;-73
2022/05/31 11:14:24;;;;;;;3.25;1.67;;;;;;;;;;10430294;28;20057;-73
2022/05/31 11:19:38;;;;;;;5.78;1.80;;;;;;;;;;10427982;28;20095;-70
2022/05/31 11:24:57;;;;;;;2.65;1.75;;;;;;;;;;10444829;28;20038;-70
2022/05/31 11:30:19;;;;;;;4.40;1.70;;;;;;;;;;10445824;28;20052;-69
2022/05/31 11:35:38;;;;;;;3.30;1.45;;;;;;;;;;10417556;28;20049;-69
2022/05/31 11:40:50;;;;;;;3.47;1.67;;;;;;;;;;10450314;28;20040;-68
2022/05/31 11:45:58;;;;;;;;;;;;;;;;;;10450869;28;20053;-69
2022/05/31 11:51:14;;;;;;;4.32;1.70;;;;;;;;;;10449085;28;19932;-68
2022/05/31 11:56:27;;;;;;;3.33;1.70;;;;;;;;;;10450184;28;20367;-69
2022/05/31 12:01:37;;;;;;;1.77;1.55;;;;;;;;;;10436751;28;20253;-69
2022/05/31 12:06:46;;;;;;;3.33;1.98;;;;;;;;;;10418012;28;20301;-68
2022/05/31 12:11:52;;;;;;;3.45;2.20;;;;;;;;;;10420119;28;20374;-69
2022/05/31 12:16:56;;;;;;;1.88;1.58;;;;;;;;;;10435227;28;20064;-69
2022/05/31 12:22:08;;;;;;;2.60;1.75;;;;;;;;;;10437052;28;20057;-68
2022/05/31 12:27:16;;;;;;;2.30;1.65;;;;;;;;;;10448773;28;20217;-71
2022/05/31 12:32:45;;;;;;;2.63;1.42;;;;;;;;;;10446675;28;20041;-68
2022/05/31 12:38:04;;;;;;;3.38;1.73;;;;;;;;;;10434036;28;20053;-68
2022/05/31 12:43:08;;;;;;;3.00;1.70;;;;;;;;;;10448812;28;20170;-68
2022/05/31 12:48:18;;;;;;;3.80;1.92;;;;;;;;;;10435621;28;20387;-68
2022/05/31 12:53:25;;;;;;;2.38;1.70;;;;;;;;;;10445143;28;20045;-68
2022/05/31 12:58:50;;;;;;;2.38;1.98;;;;;;;;;;10423224;28;20073;-68
2022/05/31 13:03:56;;;;;;;3.20;2.00;;;;;;;;;;10430527;28;20065;-68
2022/05/31 13:09:02;;;;;;;3.65;2.30;;;;;;;;;;10448728;28;20344;-69
2022/05/31 13:19:42;;;;;;;4.57;2.22;;;;;;;;;;10446841;28;20057;-69
2022/05/31 13:24:50;;;;;;;4.05;2.03;;;;;;;;;;10415936;28;20056;-68
2022/05/31 13:30:05;;;;;;;1.75;1.55;;;;;;;;;;10446795;28;20099;-68
2022/05/31 13:35:11;;;;;;;1.95;1.70;;;;;;;;;;10407136;28;20048;-68
2022/05/31 13:40:18;;;;;;;4.13;1.73;;;;;;;;;;10430925;28;20103;-68
2022/05/31 13:45:24;;;;;;;11.95;2.28;;;;;;;;;;10416841;28;20356;-70
2022/05/31 13:50:37;;;;;;;4.63;2.08;;;;;;;;;;10445345;28;20037;-68
2022/05/31 13:55:40;;;;;;;3.00;1.67;;;;;;;;;;10427592;28;20360;-69
2022/05/31 14:00:47;;;;;;;3.28;1.70;;;;;;;;;;10430920;28;20099;-69
2022/05/31 14:05:55;;;;;;;3.40;1.83;;;;;;;;;;10446856;28;20049;-69
2022/05/31 14:10:59;;;;;;;3.13;1.70;;;;;;;;;;10432987;28;20069;-69
2022/05/31 14:16:13;;;;;;;3.08;2.00;;;;;;;;;;10431552;28;20045;-69
2022/05/31 14:21:19;;;;;;;5.68;2.08;;;;;;;;;;10436367;28;20037;-70
2022/05/31 14:26:25;;;;;;;3.35;2.03;;;;;;;;;;10442399;28;20049;-67
2022/05/31 14:31:27;;;;;;;2.95;1.90;;;;;;;;;;10431917;28;20083;-69
2022/05/31 14:36:32;;;;;;;2.43;1.60;;;;;;;;;;10430760;28;20049;-69
2022/05/31 14:41:40;;;;;;;3.85;2.10;;;;;;;;;;10431857;28;20230;-68
2022/05/31 14:46:43;;;;;;;5.28;2.08;;;;;;;;;;10445872;28;20079;-68
2022/05/31 14:51:46;;;;;;;2.67;1.70;;;;;;;;;;10424398;28;20068;-69
2022/05/31 14:56:51;;;;;;;5.07;1.98;;;;;;;;;;10430093;28;20092;-69
2022/05/31 15:01:55;;;;;;;3.30;2.10;;;;;;;;;;10445462;28;20267;-69
2022/05/31 15:07:05;;;;;;;6.90;2.55;;;;;;;;;;10436867;28;20042;-69
2022/05/31 15:23:07;;;;;;;2.78;1.90;;;;;;;;;;10341024;28;20070;-69
2022/05/31 15:28:11;;;;;;;3.35;2.15;;;;;;;;;;10356372;28;20081;-68
2022/05/31 15:33:13;;;;;;;7.65;4.38;;;;;;;;;;10353245;28;20113;-69
2022/05/31 15:38:20;;;;;;;5.25;3.22;;;;;;;;;;10351032;28;20062;-69
2022/05/31 15:48:40;;;;;;;5.97;2.53;;;;;;;;;;10352747;28;20396;-69
2022/05/31 15:53:44;;;;;;;4.47;2.30;;;;;;;;;;10394333;28;20072;-69
2022/05/31 15:58:51;;;;;;;2.67;2.17;;;;;;;;;;10435059;28;20491;-69
2022/05/31 16:03:54;;;;;;;3.15;2.10;;;;;;;;;;10436997;28;20060;-69
2022/05/31 16:08:57;;;;;;;3.20;2.63;;;;;;;;;;10435512;28;20295;-69
2022/05/31 16:14:01;;;;;;;2.22;2.03;;;;;;;;;;10436230;28;20042;-69
2022/05/31 16:19:04;;;;;;;4.43;2.70;;;;;;;;;;10436365;28;20045;-69
2022/05/31 16:24:08;;;;;;;6.32;2.92;;;;;;;;;;10435746;28;20060;-76
2022/05/31 16:29:12;;;;;;;4.75;2.15;;;;;;;;;;10435705;28;20037;-69
2022/05/31 16:34:15;;;;;;;3.13;2.35;;;;;;;;;;10435334;28;20041;-70
2022/05/31 16:44:45;;;;;;;7.28;3.85;;;;;;;;;;10450196;28;20068;-69
2022/05/31 16:49:47;;;;;;;6.70;2.47;;;;;;;;;;10431388;28;20060;-69
2022/05/31 16:54:49;;;;;;;3.42;2.42;;;;;;;;;;10432366;28;20087;-69
2022/05/31 16:59:53;;;;;;;5.35;2.20;;;;;;;;;;10435650;28;20112;-69
2022/05/31 17:04:56;;;;;;;2.90;2.17;;;;;;;;;;10435175;28;20057;-69
2022/05/31 17:15:26;;;;;;;6.22;3.15;;;;;;;;;;10383788;28;20065;-69
2022/05/31 17:20:36;;;;;;;4.53;2.30;;;;;;;;;;10346442;28;20054;-69
2022/05/31 17:25:40;;;;;;;8.00;3.28;;;;;;;;;;10354246;28;20050;-70
2022/05/31 17:30:44;;;;;;;9.00;3.47;;;;;;;;;;10347003;28;20137;-68
2022/05/31 17:35:48;;;;;;;4.20;3.05;;;;;;;;;;10348306;28;20058;-70
2022/05/31 17:40:50;;;;;;;5.85;3.05;;;;;;;;;;10349647;28;20124;-70
2022/05/31 17:45:54;;;;;;;8.05;3.20;;;;;;;;;;10331902;28;20054;-67
2022/05/31 17:50:57;;;;;;;3.45;2.80;;;;;;;;;;10387099;28;20068;-69
2022/05/31 17:55:59;;;;;;;8.52;3.10;;;;;;;;;;10433501;28;20049;-68
2022/05/31 18:01:03;;;;;;;5.93;2.80;;;;;;;;;;10431637;28;20352;-69
2022/05/31 18:06:06;;;;;;;;;;;;;;;;;;10430992;28;20053;-69
2022/05/31 18:11:10;;;;;;;5.50;3.13;;;;;;;;;;10435543;28;19917;-69
2022/05/31 18:16:13;;;;;;;5.50;3.93;;;;;;;;;;10431183;28;20399;-68
2022/05/31 18:21:19;;;;;;;4.73;3.77;;;;;;;;;;10410775;28;20049;-69
2022/05/31 18:26:24;;;;;;;17.20;3.88;;;;;;;;;;10446393;28;20044;-69
2022/05/31 18:31:27;;;;;;;5.45;3.75;;;;;;;;;;10237212;28;20055;-68
2022/05/31 18:41:46;;;;;;;6.72;3.78;;;;;;;;;;10316498;28;20058;-69
2022/05/31 18:46:49;;;;;;;5.55;4.00;;;;;;;;;;10304975;28;20046;-69
2022/05/31 18:51:52;;;;;;;7.80;3.80;;;;;;;;;;10313253;28;20046;-68
2022/05/31 18:56:54;;;;;;;7.70;4.80;;;;;;;;;;10317168;28;20049;-70
2022/05/31 19:02:15;;;;;;;12.50;4.85;;;;;;;;;;10331453;28;20066;-69
2022/05/31 19:07:18;;;;;;;8.68;5.40;;;;;;;;;;10327632;28;20479;-70
2022/05/31 19:12:20;;;;;;;9.55;5.32;;;;;;;;;;10319258;28;20058;-67
2022/05/31 19:17:24;;;;;;;10.20;5.97;;;;;;;;;;10315854;28;20054;-69
2022/05/31 19:22:26;;;;;;;8.75;5.68;;;;;;;;;;10314111;28;20047;-67
2022/05/31 19:27:28;;;;;;;6.38;5.15;;;;;;;;;;10316203;28;20043;-68
2022/05/31 19:32:32;;;;;;;9.80;5.78;;;;;;;;;;10316835;28;20093;-69
2022/05/31 19:37:38;;;;;;;12.77;5.43;;;;;;;;;;10315363;28;20157;-68
2022/05/31 19:42:41;;;;;;;7.43;5.43;;;;;;;;;;10328475;28;20050;-69
2022/05/31 19:47:46;;;;;;;7.63;4.88;;;;;;;;;;10315315;28;20055;-68
2022/05/31 19:52:49;;;;;;;5.72;4.53;;;;;;;;;;10314468;28;20046;-69
2022/05/31 19:57:52;;;;;;;10.30;4.60;;;;;;;;;;10314849;28;20093;-69
2022/05/31 20:02:55;;;;;;;10.52;5.07;;;;;;;;;;10313302;28;20054;-68
2022/05/31 20:07:58;;;;;;;5.05;4.32;;;;;;;;;;10314931;28;20093;-68
2022/05/31 20:13:00;;;;;;;5.57;4.10;;;;;;;;;;10313575;28;20089;-68
2022/05/31 20:18:31;;;;;;;7.75;4.65;;;;;;;;;;10310392;28;20043;-68
2022/05/31 20:23:33;;;;;;;7.90;4.80;;;;;;;;;;10324779;28;20062;-69
2022/05/31 20:28:37;;;;;;;7.47;4.90;;;;;;;;;;10314266;28;20373;-67
2022/05/31 20:33:41;;;;;;;11.97;5.83;;;;;;;;;;10313646;28;20152;-68
2022/05/31 20:38:47;;;;;;;13.82;7.60;;;;;;;;;;10314245;28;20051;-69
2022/05/31 20:43:51;;;;;;;15.88;7.65;;;;;;;;;;10327116;28;20046;-69
2022/05/31 20:48:55;;;;;;;11.80;7.28;;;;;;;;;;10312146;28;20054;-68
2022/05/31 20:53:58;;;;;;;9.80;6.32;;;;;;;;;;10312533;28;20054;-69
2022/05/31 20:59:02;;;;;;;13.02;6.05;;;;;;;;;;10312554;28;20430;-68
2022/05/31 21:04:06;;;;;;;8.32;5.53;;;;;;;;;;10312227;28;20270;-68
2022/05/31 21:09:21;;;;;;;10.43;6.32;;;;;;;;;;10307590;28;20073;-68
2022/05/31 21:14:27;;;;;;;14.27;7.25;;;;;;;;;;10322899;28;20050;-69
2022/05/31 21:19:31;;;;;;;10.48;7.45;;;;;;;;;;10324859;28;20223;-69
2022/05/31 21:24:34;;;;;;;14.05;8.52;;;;;;;;;;10310046;28;20054;-67
2022/05/31 21:29:39;;;;;;;13.85;8.75;;;;;;;;;;10311170;28;20043;-69
2022/05/31 21:34:43;;;;;;;15.45;9.27;;;;;;;;;;10322571;28;20042;-68
2022/05/31 21:45:07;;;;;;;15.23;9.55;;;;;;;;;;10301761;28;20039;-67
2022/05/31 21:50:11;;;;;;;16.50;9.98;;;;;;;;;;10291728;28;20039;-67
2022/05/31 21:55:19;;;;;;;26.40;13.60;;;;;;;;;;10311416;28;20360;-67
2022/05/31 22:00:40;;;;;;;48.15;21.90;;;;;;;;;;10315304;28;20226;-68
2022/05/31 22:05:44;;;;;;;24.60;15.45;;;;;;;;;;10313125;28;20059;-68
2022/05/31 22:10:46;;;;;;;24.80;15.82;;;;;;;;;;10312900;28;20062;-68
2022/05/31 22:15:49;;;;;;;21.38;14.23;;;;;;;;;;10309961;28;20042;-66
2022/05/31 22:20:53;;;;;;;26.00;14.98;;;;;;;;;;10311982;28;20047;-67
2022/05/31 22:25:58;;;;;;;21.63;13.65;;;;;;;;;;10311524;28;20291;-67
2022/05/31 22:31:01;;;;;;;22.48;13.32;;;;;;;;;;10309447;28;20353;-68
2022/05/31 22:36:05;;;;;;;25.30;13.82;;;;;;;;;;10312019;28;20059;-68
2022/05/31 22:41:11;;;;;;;20.17;12.83;;;;;;;;;;10311413;28;20061;-68
2022/05/31 22:46:14;;;;;;;18.98;12.95;;;;;;;;;;10324878;28;20327;-67
2022/05/31 22:51:17;;;;;;;22.88;14.80;;;;;;;;;;10313211;28;20261;-67
2022/05/31 22:56:21;;;;;;;21.95;13.23;;;;;;;;;;10310442;28;20043;-68
2022/05/31 23:01:23;;;;;;;26.52;12.38;;;;;;;;;;10308796;28;20055;-67
2022/05/31 23:06:27;;;;;;;22.20;14.05;;;;;;;;;;10309628;28;20042;-69
2022/05/31 23:11:30;;;;;;;18.97;12.53;;;;;;;;;;10309713;28;20050;-68
2022/05/31 23:16:33;;;;;;;17.58;11.88;;;;;;;;;;10309445;28;20047;-68
2022/05/31 23:21:40;;;;;;;18.30;12.70;;;;;;;;;;10308585;28;20054;-68
2022/05/31 23:26:45;;;;;;;20.52;13.25;;;;;;;;;;10312670;28;20073;-68
2022/05/31 23:31:51;;;;;;;32.45;18.17;;;;;;;;;;10316493;28;20333;-69
2022/05/31 23:36:55;;;;;;;30.08;16.48;;;;;;;;;;10330114;28;20042;-68
2022/05/31 23:41:58;;;;;;;26.77;16.70;;;;;;;;;;10315619;28;20046;-68
2022/05/31 23:47:01;;;;;;;24.05;14.68;;;;;;;;;;10316424;28;20050;-68
2022/05/31 23:52:06;;;;;;;24.08;14.98;;;;;;;;;;10314356;28;20126;-68
2022/05/31 23:57:09;;;;;;;23.10;13.32;;;;;;;;;;10314241;28;20039;-68
